Terminal Aerodrome Forecast
Issued by NWS

Home | Current Version | Previous Version | Text Only | Print | Product List | Glossary On
Versions: 1 2 3 4 5 6 7 8 9 10 11 12
884
FTUS41 KBTV 251728
TAFRUT
TAF
KRUT 251728Z 2518/2618 12015G22KT P6SM VCSH OVC050
     FM260200 11012G18KT 5SM -SHRA BR OVC035
     FM260500 10010G16KT P6SM -SHRA OVC025
     FM261300 11009KT P6SM VCSH OVC030
     FM261700 11008KT P6SM OVC040=

USA.gov is the U.S. government's official web portal to all federal, state and local government web resources and services.